カフルイ の空港の天気 - METARとTAF

カフルイ空港 ( PHOG / OGG ) - アメリカ ハワイ州カフルイ
飛行場実況気象(Metar)
観測時間05/25 14:54 HST (05/26 00:54 UTC)
風向・風速北東 8m/s 瞬間風速11m/s
視程10km以上
天気現象
少しの雲 雲底高度 1070m
全天の4割程度の雲 雲底高度 1520m
気温28.3℃
湿度48%
気圧1015.3hPa
METARPHOG 260054Z 04015G22KT 10SM FEW035 SCT050 28/16 A2997 RMK AO2 SLP153 T02830161
過去の天気等 Google飛行場航空写真 Wunderground天気予報

過去48時間のMETAR

飛行場予報(TAF)
発表時間: 5/25 13:34 HST (5/25 23:34 UTC)
予報対象時間: 25日14時 HST ~ 26日14時 HST
風向・風速北東 9m/s 瞬間風速 13m/s
視程10km以上
少しの雲 雲底高度 910m
全天の4割程度の雲 雲底高度 1520m
25日21時 HST から
風向・風速東 3m/s
視程10km以上
少しの雲 雲底高度 1070m
26日8時 HST から
風向・風速北東 6m/s
視程10km以上
少しの雲 雲底高度 910m
PHOG 252334Z 2600/2624 04018G25KT P6SM FEW030 SCT050
FM260700 10005KT P6SM FEW035
FM261800 04012KT P6SM FEW030